Time;durP1;ratioP1;P1;durP2;ratioP2;P2;SDS_P1;SDS_P2;PMS_P1;PMS_P2;Temp;Humidity;BMP_temperature;BMP_pressure;BME280_temperature;BME280_humidity;BME280_pressure;Samples;Min_cycle;Max_cycle;Signal;HPM_P1;HPM_P2
2023/02/04 00:01:34;;;;;;;;;;;;;;;4.91;76.87;93624.81;2051634;70;20142;-78
2023/02/04 00:03:59;;;;;;;;;;;;;;;4.78;77.87;93618.06;2051843;70;20150;-78
2023/02/04 00:06:25;;;;;;;;;;;;;;;4.91;77.47;93613.66;2051671;70;20170;-75
2023/02/04 00:08:50;;;;;;;;;;;;;;;4.99;77.28;93612.38;2051662;70;20048;-76
2023/02/04 00:11:16;;;;;;;;;;;;;;;4.92;77.96;93629.84;2051776;70;20146;-78
2023/02/04 00:13:41;;;;;;;;;;;;;;;5.14;76.00;93627.69;2051774;70;20086;-77
2023/02/04 00:16:07;;;;;;;;;;;;;;;5.26;76.03;93621.19;2051787;70;20085;-75
2023/02/04 00:18:32;;;;;;;;;;;;;;;5.23;76.27;93621.59;2051693;70;20164;-76
2023/02/04 00:20:58;;;;;;;;;;;;;;;5.15;77.19;93623.59;2051702;70;20143;-76
2023/02/04 00:23:23;;;;;;;;;;;;;;;5.18;76.94;93623.25;2051648;70;20142;-76
2023/02/04 00:25:48;;;;;;;;;;;;;;;5.19;76.25;93621.94;2051766;70;20062;-77
2023/02/04 00:28:14;;;;;;;;;;;;;;;5.19;77.02;93629.56;2051634;70;20050;-75
2023/02/04 00:30:39;;;;;;;;;;;;;;;5.26;76.54;93620.47;2048418;70;20145;-77
2023/02/04 00:33:05;;;;;;;;;;;;;;;5.18;77.16;93623.25;2051820;70;20082;-76
2023/02/04 00:35:30;;;;;;;;;;;;;;;5.32;76.52;93621.03;2048271;70;20078;-78
2023/02/04 00:37:55;;;;;;;;;;;;;;;5.29;76.44;93619.34;2051489;70;20066;-76
2023/02/04 00:40:21;;;;;;;;;;;;;;;5.36;76.54;93610.25;2048298;70;20055;-74
2023/02/04 00:42:46;;;;;;;;;;;;;;;5.30;76.45;93613.22;2045415;70;20423;-76
2023/02/04 00:45:12;;;;;;;;;;;;;;;5.34;76.42;93612.84;2051631;70;20046;-76
2023/02/04 00:47:37;;;;;;;;;;;;;;;5.35;76.71;93612.28;2051548;70;20046;-77
2023/02/04 00:50:04;;;;;;;;;;;;;;;5.30;76.51;93627.16;2044931;70;20062;-77
2023/02/04 00:52:30;;;;;;;;;;;;;;;5.17;77.63;93623.78;2048159;70;20077;-76
2023/02/04 00:54:55;;;;;;;;;;;;;;;5.35;76.30;93623.47;2045011;70;20396;-75
2023/02/04 00:57:20;;;;;;;;;;;;;;;5.33;76.34;93611.38;2047528;70;20043;-75
2023/02/04 00:59:46;;;;;;;;;;;;;;;5.29;76.58;93620.09;2044971;70;20047;-76
2023/02/04 01:02:11;;;;;;;;;;;;;;;5.27;77.10;93614.34;2045050;70;20118;-77
2023/02/04 01:04:38;;;;;;;;;;;;;;;5.29;77.51;93620.09;2045029;70;20050;-77
2023/02/04 01:07:03;;;;;;;;;;;;;;;5.34;77.09;93612.84;2048299;70;20051;-77
2023/02/04 01:09:28;;;;;;;;;;;;;;;5.38;76.69;93612.50;2044967;70;20074;-76
2023/02/04 01:11:54;;;;;;;;;;;;;;;5.16;77.97;93608.34;2047715;70;20054;-76
2023/02/04 01:14:19;;;;;;;;;;;;;;;5.32;77.71;93613.41;2048175;70;20078;-77
2023/02/04 01:16:45;;;;;;;;;;;;;;;5.33;77.57;93619.75;2048446;70;20047;-76
2023/02/04 01:19:10;;;;;;;;;;;;;;;5.16;77.56;93602.75;2048356;70;20046;-75
2023/02/04 01:21:36;;;;;;;;;;;;;;;5.33;77.38;93603.00;2047883;70;20058;-75
2023/02/04 01:24:02;;;;;;;;;;;;;;;5.34;77.21;93601.69;2048318;70;20059;-75
2023/02/04 01:26:28;;;;;;;;;;;;;;;5.29;76.89;93608.19;2048093;70;20043;-75
2023/02/04 01:28:53;;;;;;;;;;;;;;;5.09;77.81;93607.78;2048110;70;20050;-77
2023/02/04 01:31:19;;;;;;;;;;;;;;;5.01;78.13;93606.25;2047636;70;20067;-77
2023/02/04 01:33:47;;;;;;;;;;;;;;;5.00;79.07;93610.34;2047807;70;20498;-75
2023/02/04 01:36:13;;;;;;;;;;;;;;;5.15;78.10;93612.44;2044401;70;20055;-78
2023/02/04 01:38:38;;;;;;;;;;;;;;;5.25;77.51;93618.97;2044432;70;20055;-74
2023/02/04 01:41:04;;;;;;;;;;;;;;;5.19;77.30;93621.94;2047198;70;20146;-75
2023/02/04 01:43:30;;;;;;;;;;;;;;;5.16;77.30;93625.81;2044797;70;20161;-76
2023/02/04 01:45:56;;;;;;;;;;;;;;;5.06;78.97;93619.28;2044190;70;20138;-74
2023/02/04 01:48:22;;;;;;;;;;;;;;;5.24;77.97;93620.28;2044845;70;20051;-76
2023/02/04 01:50:49;;;;;;;;;;;;;;;5.29;78.14;93617.31;2044996;70;20481;-75
2023/02/04 01:53:17;;;;;;;;;;;;;;;5.22;78.21;93618.06;2044818;70;20166;-75
2023/02/04 01:55:42;;;;;;;;;;;;;;;5.30;77.27;93624.38;2047135;70;20503;-76
2023/02/04 01:58:09;;;;;;;;;;;;;;;5.27;77.76;93617.13;2044846;70;20047;-75
2023/02/04 02:00:34;;;;;;;;;;;;;;;5.25;77.75;93616.91;2047118;70;20047;-76
2023/02/04 02:03:02;;;;;;;;;;;;;;;5.31;77.79;93611.16;2047722;70;20078;-76
2023/02/04 02:05:32;;;;;;;;;;;;;;;5.16;78.85;93622.28;2048120;70;20153;-75
2023/02/04 02:07:59;;;;;;;;;;;;;;;5.35;77.69;93625.50;2048033;70;20117;-74
2023/02/04 02:10:26;;;;;;;;;;;;;;;5.31;77.83;93619.53;2044802;70;20105;-76
2023/02/04 02:12:52;;;;;;;;;;;;;;;5.28;78.76;93631.84;2047818;70;20150;-75
2023/02/04 02:15:18;;;;;;;;;;;;;;;5.06;80.56;93636.03;2047299;70;20499;-75
2023/02/04 02:17:44;;;;;;;;;;;;;;;5.38;78.19;93648.78;2047449;70;20051;-75
2023/02/04 02:20:12;;;;;;;;;;;;;;;5.40;77.76;93644.13;2047512;70;20047;-76
2023/02/04 02:22:58;;;;;;;;;;;;;;;5.29;77.62;93641.69;2047324;70;20051;-76
2023/02/04 02:25:23;;;;;;;;;;;;;;;5.42;77.55;93629.63;2047449;70;20050;-75
2023/02/04 02:27:49;;;;;;;;;;;;;;;5.48;77.45;93628.16;2048011;70;20063;-76
2023/02/04 02:30:16;;;;;;;;;;;;;;;5.38;77.69;93620.88;2048097;70;20085;-76
2023/02/04 02:32:43;;;;;;;;;;;;;;;5.43;77.44;93628.31;2047910;70;20057;-76
2023/02/04 02:35:10;;;;;;;;;;;;;;;5.40;77.36;93640.59;2048066;70;20058;-75
2023/02/04 02:37:35;;;;;;;;;;;;;;;5.38;77.76;93634.84;2047498;70;20043;-75
2023/02/04 02:40:01;;;;;;;;;;;;;;;5.28;78.01;93643.00;2048309;70;20488;-75
2023/02/04 02:42:27;;;;;;;;;;;;;;;5.19;78.76;93644.28;2047739;70;20058;-76
2023/02/04 02:44:53;;;;;;;;;;;;;;;5.34;78.06;93644.31;2048087;70;20078;-76
2023/02/04 02:47:20;;;;;;;;;;;;;;;5.44;77.33;93650.09;2047659;70;20507;-76
2023/02/04 02:49:50;;;;;;;;;;;;;;;5.45;77.32;93645.25;2048096;70;20140;-76
2023/02/04 02:52:16;;;;;;;;;;;;;;;5.42;77.48;93666.69;2044852;70;20138;-76
2023/02/04 02:54:42;;;;;;;;;;;;;;;5.37;78.32;93680.81;2048103;70;20054;-76
2023/02/04 02:57:12;;;;;;;;;;;;;;;5.46;77.57;93681.03;2047349;70;20082;-75
2023/02/04 02:59:37;;;;;;;;;;;;;;;5.27;78.69;93689.72;2048068;70;20083;-75
2023/02/04 03:02:04;;;;;;;;;;;;;;;5.39;78.25;93687.31;2047556;70;20181;-76
2023/02/04 03:04:35;;;;;;;;;;;;;;;5.46;77.43;93691.47;2047434;70;20057;-74
2023/02/04 03:07:01;;;;;;;;;;;;;;;5.32;77.87;93696.44;2044799;70;20193;-75
2023/02/04 03:09:28;;;;;;;;;;;;;;;5.21;79.09;93705.88;2047439;70;20170;-75
2023/02/04 03:11:53;;;;;;;;;;;;;;;5.29;79.02;93698.28;2047478;70;20081;-75
2023/02/04 03:14:19;;;;;;;;;;;;;;;5.31;78.75;93692.91;2047253;70;20479;-76
2023/02/04 03:16:45;;;;;;;;;;;;;;;5.39;78.32;93703.34;2047425;70;20492;-76
2023/02/04 03:19:11;;;;;;;;;;;;;;;5.36;78.47;93705.22;2048086;70;20601;-75
2023/02/04 03:21:37;;;;;;;;;;;;;;;5.25;78.31;93697.16;2047350;70;20078;-75
2023/02/04 03:24:03;;;;;;;;;;;;;;;5.37;77.61;93703.91;2047319;70;20114;-76
2023/02/04 03:26:28;;;;;;;;;;;;;;;5.39;77.81;93694.97;2047310;70;20456;-75
2023/02/04 03:28:54;;;;;;;;;;;;;;;5.39;78.16;93694.97;2047067;70;20142;-76
2023/02/04 03:31:19;;;;;;;;;;;;;;;5.34;78.35;93708.53;2047170;70;20069;-75
2023/02/04 03:33:45;;;;;;;;;;;;;;;5.41;77.38;93712.66;2048050;70;20051;-75
2023/02/04 03:36:10;;;;;;;;;;;;;;;5.41;76.88;93714.72;2048618;70;20383;-75
2023/02/04 03:38:36;;;;;;;;;;;;;;;5.22;77.50;93726.94;2050872;70;20124;-74
2023/02/04 03:41:01;;;;;;;;;;;;;;;5.20;78.38;93746.25;2051039;70;20053;-76
2023/02/04 03:43:28;;;;;;;;;;;;;;;5.14;78.36;93753.31;2051139;70;20057;-76
2023/02/04 03:45:54;;;;;;;;;;;;;;;5.15;78.61;93760.38;2047700;70;20043;-75
2023/02/04 03:48:19;;;;;;;;;;;;;;;5.19;78.33;93760.78;2050992;70;20058;-75
2023/02/04 03:50:44;;;;;;;;;;;;;;;5.25;77.77;93750.19;2050966;70;20475;-77
2023/02/04 03:53:10;;;;;;;;;;;;;;;5.24;77.24;93759.88;2051084;70;20085;-75
2023/02/04 03:55:35;;;;;;;;;;;;;;;5.00;78.59;93755.47;2048137;70;20078;-76
2023/02/04 03:58:01;;;;;;;;;;;;;;;4.94;79.52;93757.66;2051434;70;20404;-77
2023/02/04 04:00:27;;;;;;;;;;;;;;;5.14;78.72;93756.84;2051620;70;20499;-77
2023/02/04 04:02:53;;;;;;;;;;;;;;;5.22;78.17;93765.25;2051363;70;20089;-76
2023/02/04 04:05:18;;;;;;;;;;;;;;;5.25;77.75;93769.75;2048460;70;20090;-74
2023/02/04 04:07:44;;;;;;;;;;;;;;;5.13;77.73;93766.50;2051686;70;20090;-77
2023/02/04 04:10:09;;;;;;;;;;;;;;;5.17;78.33;93766.91;2051644;70;20100;-75
2023/02/04 04:12:35;;;;;;;;;;;;;;;5.00;78.86;93763.84;2051459;70;20051;-76
2023/02/04 04:15:01;;;;;;;;;;;;;;;5.13;78.71;93771.34;2051157;70;20054;-74
2023/02/04 04:17:31;;;;;;;;;;;;;;;5.14;78.61;93775.66;2051365;70;20057;-77
2023/02/04 04:19:56;;;;;;;;;;;;;;;5.22;77.84;93766.00;2051571;70;20054;-75
2023/02/04 04:22:22;;;;;;;;;;;;;;;5.17;78.30;93771.72;2051729;70;20058;-75
2023/02/04 04:24:47;;;;;;;;;;;;;;;5.15;78.23;93775.09;2051542;70;20492;-75
2023/02/04 04:27:12;;;;;;;;;;;;;;;4.84;79.67;93788.09;2051432;70;20043;-75
2023/02/04 04:29:38;;;;;;;;;;;;;;;4.99;79.28;93779.06;2051623;70;20040;-76
2023/02/04 04:32:04;;;;;;;;;;;;;;;5.04;78.83;93787.31;2051679;70;20046;-75
2023/02/04 04:34:29;;;;;;;;;;;;;;;5.06;78.26;93795.13;2051564;70;20047;-76
2023/02/04 04:36:55;;;;;;;;;;;;;;;5.07;78.29;93789.00;2051311;70;20058;-75
2023/02/04 04:39:20;;;;;;;;;;;;;;;5.00;79.08;93792.50;2051679;70;20137;-76
2023/02/04 04:41:47;;;;;;;;;;;;;;;5.08;78.71;93792.53;2051660;70;20057;-77
2023/02/04 04:44:13;;;;;;;;;;;;;;;4.93;78.49;93793.19;2048086;70;20113;-76
2023/02/04 04:46:39;;;;;;;;;;;;;;;5.01;78.42;93791.19;2051642;70;20046;-76
2023/02/04 04:49:05;;;;;;;;;;;;;;;5.06;78.60;93798.66;2051553;70;20069;-76
2023/02/04 04:51:32;;;;;;;;;;;;;;;5.09;78.67;93805.22;2051563;70;20496;-76
2023/02/04 04:53:58;;;;;;;;;;;;;;;5.12;78.45;93800.56;2048237;70;20053;-76
2023/02/04 04:56:24;;;;;;;;;;;;;;;5.04;78.68;93806.06;2051421;70;20051;-75
2023/02/04 04:58:49;;;;;;;;;;;;;;;5.10;78.32;93793.47;2051570;70;20049;-76
2023/02/04 05:01:15;;;;;;;;;;;;;;;5.01;78.58;93779.28;2051266;70;20078;-77
2023/02/04 05:03:40;;;;;;;;;;;;;;;5.07;78.50;93771.50;2051114;70;20122;-75
2023/02/04 05:06:07;;;;;;;;;;;;;;;5.14;78.21;93778.44;2051151;70;20050;-75
2023/02/04 05:08:34;;;;;;;;;;;;;;;5.05;77.92;93779.69;2051463;70;20543;-76
2023/02/04 05:11:00;;;;;;;;;;;;;;;5.10;78.11;93787.91;2048029;70;20066;-76
2023/02/04 05:13:26;;;;;;;;;;;;;;;5.08;78.33;93781.34;2051393;70;20484;-77
2023/02/04 05:15:51;;;;;;;;;;;;;;;4.94;78.60;93797.47;2051499;70;20053;-76
2023/02/04 05:18:17;;;;;;;;;;;;;;;4.54;81.13;93805.34;2051609;70;20050;-75
2023/02/04 05:20:42;;;;;;;;;;;;;;;4.39;81.53;93811.53;2051512;70;20059;-76
2023/02/04 05:23:08;;;;;;;;;;;;;;;4.39;81.90;93788.47;2051510;70;20046;-76
2023/02/04 05:25:33;;;;;;;;;;;;;;;4.73;80.71;93813.50;2051396;70;20050;-77
2023/02/04 05:27:59;;;;;;;;;;;;;;;4.08;81.72;93816.81;2051308;70;20130;-76
2023/02/04 05:30:24;;;;;;;;;;;;;;;4.01;83.83;93811.16;2051431;70;20056;-76
2023/02/04 05:32:50;;;;;;;;;;;;;;;4.39;82.86;93819.91;2051483;70;20074;-75
2023/02/04 05:35:15;;;;;;;;;;;;;;;4.65;81.16;93827.38;2051359;70;20504;-75
2023/02/04 05:37:41;;;;;;;;;;;;;;;4.79;80.16;93822.47;2051366;70;20125;-76
2023/02/04 05:40:06;;;;;;;;;;;;;;;4.82;79.55;93815.81;2048225;70;20150;-75
2023/02/04 05:42:34;;;;;;;;;;;;;;;4.86;78.98;93819.00;2051109;70;20047;-75
2023/02/04 05:45:01;;;;;;;;;;;;;;;4.81;79.92;93822.66;2051437;70;20042;-75
2023/02/04 05:47:27;;;;;;;;;;;;;;;4.91;79.70;93820.91;2051399;70;20046;-75
2023/02/04 05:49:52;;;;;;;;;;;;;;;4.88;79.52;93815.66;2051422;70;20491;-76
2023/02/04 05:52:18;;;;;;;;;;;;;;;4.83;80.14;93826.41;2051635;70;20097;-76
2023/02/04 05:54:43;;;;;;;;;;;;;;;4.90;79.84;93832.59;2051557;70;20086;-76
2023/02/04 05:57:09;;;;;;;;;;;;;;;4.94;79.50;93825.38;2051328;70;20061;-77
2023/02/04 05:59:35;;;;;;;;;;;;;;;4.83;79.14;93829.19;2051569;70;20570;-77
2023/02/04 06:02:00;;;;;;;;;;;;;;;4.83;79.76;93837.56;2051477;70;20434;-78
2023/02/04 06:04:26;;;;;;;;;;;;;;;4.84;79.48;93833.47;2051419;70;20562;-77
2023/02/04 06:06:51;;;;;;;;;;;;;;;4.86;79.91;93832.94;2051507;70;20046;-77
2023/02/04 06:09:16;;;;;;;;;;;;;;;4.89;79.29;93817.88;2051556;70;20055;-78
2023/02/04 06:11:42;;;;;;;;;;;;;;;4.93;78.33;93823.88;2051616;70;20046;-76
2023/02/04 06:14:09;;;;;;;;;;;;;;;4.82;79.69;93822.13;2051361;70;20046;-76
2023/02/04 06:16:36;;;;;;;;;;;;;;;4.87;79.53;93819.75;2051253;70;20051;-76
2023/02/04 06:19:01;;;;;;;;;;;;;;;4.95;79.01;93820.53;2051503;70;20046;-76
2023/02/04 06:21:27;;;;;;;;;;;;;;;4.92;78.85;93821.63;2051450;70;20054;-77
2023/02/04 06:23:52;;;;;;;;;;;;;;;4.85;78.82;93823.06;2051492;70;20495;-76
2023/02/04 06:26:17;;;;;;;;;;;;;;;4.79;79.83;93830.84;2051635;70;20047;-77
2023/02/04 06:28:43;;;;;;;;;;;;;;;4.82;78.64;93827.72;2051412;70;20086;-76
2023/02/04 06:31:09;;;;;;;;;;;;;;;4.85;78.85;93834.97;2051633;70;20096;-77
2023/02/04 06:33:35;;;;;;;;;;;;;;;4.75;78.88;93844.38;2051557;70;20578;-77
2023/02/04 06:36:01;;;;;;;;;;;;;;;4.69;79.16;93844.53;2051311;70;20577;-76
2023/02/04 06:38:26;;;;;;;;;;;;;;;4.74;79.49;93854.78;2051461;70;20066;-76
2023/02/04 06:40:52;;;;;;;;;;;;;;;4.67;79.86;93852.69;2051441;70;20049;-77
2023/02/04 06:43:18;;;;;;;;;;;;;;;4.73;79.21;93852.56;2051260;70;20044;-76
2023/02/04 06:45:43;;;;;;;;;;;;;;;4.87;78.89;93853.97;2051434;70;20043;-77
2023/02/04 06:48:09;;;;;;;;;;;;;;;4.75;79.35;93863.91;2051503;70;20378;-76
2023/02/04 06:50:34;;;;;;;;;;;;;;;4.78;79.32;93868.41;2051567;70;20046;-76
2023/02/04 06:53:00;;;;;;;;;;;;;;;4.81;78.52;93859.69;2051430;70;20066;-78
2023/02/04 06:55:25;;;;;;;;;;;;;;;4.64;79.34;93853.78;2051365;70;20050;-76
2023/02/04 06:57:51;;;;;;;;;;;;;;;4.86;78.42;93846.91;2048014;70;20050;-77
2023/02/04 07:00:16;;;;;;;;;;;;;;;4.86;79.15;93852.50;2051474;70;20502;-77
2023/02/04 07:02:42;;;;;;;;;;;;;;;4.79;79.59;93859.50;2051286;70;20148;-76
2023/02/04 07:05:08;;;;;;;;;;;;;;;4.88;78.77;93858.25;2051393;70;20135;-76
2023/02/04 07:07:35;;;;;;;;;;;;;;;4.88;78.84;93854.72;2051447;70;20067;-77
2023/02/04 07:10:00;;;;;;;;;;;;;;;4.80;79.22;93860.22;2047990;70;20498;-77
2023/02/04 07:12:26;;;;;;;;;;;;;;;4.85;79.66;93859.34;2051228;70;20483;-77
2023/02/04 07:14:52;;;;;;;;;;;;;;;4.95;79.50;93859.59;2051307;70;20530;-77
2023/02/04 07:17:18;;;;;;;;;;;;;;;4.87;80.15;93856.75;2048034;70;20126;-76
2023/02/04 07:19:43;;;;;;;;;;;;;;;4.53;80.07;93862.41;2051538;70;20085;-77
2023/02/04 07:22:09;;;;;;;;;;;;;;;4.93;79.31;93862.19;2051309;70;20067;-76
2023/02/04 07:24:34;;;;;;;;;;;;;;;5.04;78.34;93867.47;2051186;70;20467;-76
2023/02/04 07:27:00;;;;;;;;;;;;;;;5.06;78.09;93867.69;2051379;70;20077;-76
2023/02/04 07:29:25;;;;;;;;;;;;;;;5.05;78.43;93866.97;2051807;70;20046;-76
2023/02/04 07:31:51;;;;;;;;;;;;;;;5.09;78.37;93870.16;2048677;70;20042;-76
2023/02/04 07:34:17;;;;;;;;;;;;;;;5.10;78.99;93877.22;2048519;70;20491;-79
2023/02/04 07:36:42;;;;;;;;;;;;;;;5.10;78.95;93870.91;2051486;70;20043;-76
2023/02/04 07:39:08;;;;;;;;;;;;;;;5.00;79.17;93879.00;2048355;70;20133;-77
2023/02/04 07:41:34;;;;;;;;;;;;;;;5.00;79.39;93878.28;2051743;70;20571;-76
2023/02/04 07:43:59;;;;;;;;;;;;;;;5.25;79.13;93881.41;2051555;70;20105;-76
2023/02/04 07:46:25;;;;;;;;;;;;;;;5.31;79.02;93882.78;2051847;70;20128;-75
2023/02/04 07:48:50;;;;;;;;;;;;;;;5.42;78.39;93880.97;2051827;70;20132;-76
2023/02/04 07:51:16;;;;;;;;;;;;;;;5.35;78.26;93885.94;2051531;70;20042;-74
2023/02/04 07:53:41;;;;;;;;;;;;;;;5.49;78.17;93877.47;2051615;70;20143;-75
2023/02/04 07:56:07;;;;;;;;;;;;;;;5.56;77.69;93882.38;2048229;70;20085;-75
2023/02/04 07:58:32;;;;;;;;;;;;;;;5.06;79.03;93884.44;2051474;70;20055;-76
2023/02/04 08:00:58;;;;;;;;;;;;;;;5.28;79.43;93891.50;2051614;70;20152;-74
2023/02/04 08:03:23;;;;;;;;;;;;;;;5.49;78.79;93883.81;2051649;70;20086;-75
2023/02/04 08:05:49;;;;;;;;;;;;;;;5.64;77.99;93891.53;2051819;70;20077;-74
2023/02/04 08:08:14;;;;;;;;;;;;;;;5.71;77.61;93887.28;2048362;70;20558;-75
2023/02/04 08:10:40;;;;;;;;;;;;;;;5.57;78.11;93881.81;2048298;70;20148;-75
2023/02/04 08:13:05;;;;;;;;;;;;;;;5.35;79.86;93882.41;2051769;70;20043;-76
2023/02/04 08:15:31;;;;;;;;;;;;;;;5.51;78.09;93892.41;2051724;70;20058;-76
2023/02/04 08:17:59;;;;;;;;;;;;;;;5.67;78.08;93898.81;2051657;70;20146;-74
2023/02/04 08:20:27;;;;;;;;;;;;;;;5.78;77.45;93901.31;2051705;70;20061;-75
2023/02/04 08:22:53;;;;;;;;;;;;;;;5.86;78.30;93904.91;2051814;70;20054;-76
2023/02/04 08:25:19;;;;;;;;;;;;;;;5.99;77.44;93894.91;2051637;70;20038;-75
2023/02/04 08:27:45;;;;;;;;;;;;;;;5.68;77.51;93900.31;2051653;70;20082;-77
2023/02/04 08:30:11;;;;;;;;;;;;;;;5.79;77.69;93896.47;2051695;70;20162;-76
2023/02/04 08:32:36;;;;;;;;;;;;;;;5.81;77.36;93911.38;2051674;70;20129;-76
2023/02/04 08:35:02;;;;;;;;;;;;;;;6.06;77.12;93903.34;2052739;70;20087;-75
2023/02/04 08:37:29;;;;;;;;;;;;;;;6.20;76.24;93892.75;2053949;70;20043;-77
2023/02/04 08:39:55;;;;;;;;;;;;;;;6.06;76.73;93897.00;2051808;70;20046;-77
2023/02/04 08:42:20;;;;;;;;;;;;;;;6.17;76.43;93901.50;2048419;70;20042;-77
2023/02/04 08:44:45;;;;;;;;;;;;;;;6.05;76.32;93890.66;2048356;70;20042;-79
2023/02/04 08:47:12;;;;;;;;;;;;;;;6.32;76.06;93888.34;2051826;70;20479;-76
2023/02/04 08:49:37;;;;;;;;;;;;;;;6.47;76.03;93884.81;2051678;70;20054;-75
2023/02/04 08:52:04;;;;;;;;;;;;;;;6.51;76.00;93882.41;2052232;70;20049;-76
2023/02/04 08:54:31;;;;;;;;;;;;;;;6.49;75.55;93876.63;2051825;70;20043;-78
2023/02/04 08:56:56;;;;;;;;;;;;;;;6.72;75.80;93873.84;2051715;70;20042;-75
2023/02/04 08:59:24;;;;;;;;;;;;;;;6.91;75.64;93867.91;2051627;70;20541;-76
2023/02/04 09:01:51;;;;;;;;;;;;;;;7.11;75.23;93869.78;2045800;70;20050;-78
2023/02/04 09:04:20;;;;;;;;;;;;;;;7.07;75.76;93871.47;2051864;70;20065;-80
2023/02/04 09:06:46;;;;;;;;;;;;;;;7.24;75.73;93862.47;2051765;70;20142;-77
2023/02/04 09:09:13;;;;;;;;;;;;;;;6.87;76.08;93867.53;2051690;70;20495;-76
2023/02/04 09:11:39;;;;;;;;;;;;;;;7.15;75.99;93872.22;2051705;70;20058;-76
2023/02/04 09:14:04;;;;;;;;;;;;;;;7.35;74.94;93873.31;2051484;70;20113;-79
2023/02/04 09:16:30;;;;;;;;;;;;;;;7.09;74.21;93871.63;2051649;70;20066;-76
2023/02/04 09:18:57;;;;;;;;;;;;;;;7.08;74.95;93879.28;2051675;70;20083;-76
2023/02/04 09:21:23;;;;;;;;;;;;;;;7.21;75.02;93878.38;2051718;70;20109;-78
2023/02/04 09:23:48;;;;;;;;;;;;;;;7.22;74.36;93882.66;2048262;70;20062;-75
2023/02/04 09:26:14;;;;;;;;;;;;;;;8.06;74.95;93879.72;2051612;70;20053;-78
2023/02/04 09:28:40;;;;;;;;;;;;;;;8.42;71.96;93891.91;2051542;70;20058;-75
2023/02/04 09:31:05;;;;;;;;;;;;;;;8.48;71.06;93887.59;2051724;70;20053;-77
2023/02/04 09:33:31;;;;;;;;;;;;;;;8.27;73.48;93887.09;2051731;70;20065;-75
2023/02/04 09:35:56;;;;;;;;;;;;;;;8.97;73.43;93886.16;2051474;70;20130;-77
2023/02/04 09:38:22;;;;;;;;;;;;;;;9.33;70.32;93893.38;2051780;70;20078;-78
2023/02/04 09:40:50;;;;;;;;;;;;;;;8.22;69.00;93900.00;2048504;70;20113;-76
2023/02/04 09:43:18;;;;;;;;;;;;;;;8.57;69.81;93897.47;2051522;70;20045;-76
2023/02/04 09:45:44;;;;;;;;;;;;;;;9.54;69.93;93907.09;2051653;70;20050;-77
2023/02/04 09:48:12;;;;;;;;;;;;;;;9.56;66.39;93899.56;2051754;70;20392;-77
2023/02/04 09:50:37;;;;;;;;;;;;;;;9.89;69.26;93910.69;2051440;70;20117;-79
2023/02/04 09:53:04;;;;;;;;;;;;;;;10.43;67.09;93899.63;2051483;70;20070;-77
2023/02/04 09:55:36;;;;;;;;;;;;;;;10.17;66.64;93892.56;2048233;70;20086;-79
2023/02/04 09:58:02;;;;;;;;;;;;;;;9.86;65.03;93898.53;2051482;70;20062;-76
2023/02/04 10:00:29;;;;;;;;;;;;;;;10.05;64.10;93889.53;2051569;70;20057;-77
2023/02/04 10:02:58;;;;;;;;;;;;;;;10.48;64.26;93892.97;2051537;70;20121;-76
2023/02/04 10:05:30;;;;;;;;;;;;;;;10.36;64.59;93889.22;2051553;70;20062;-76
2023/02/04 10:07:55;;;;;;;;;;;;;;;10.54;62.43;93893.47;2048279;70;20046;-76
2023/02/04 10:10:25;;;;;;;;;;;;;;;10.73;62.96;93889.31;2051432;70;20062;-75
2023/02/04 10:12:52;;;;;;;;;;;;;;;11.29;63.28;93884.53;2051287;70;20514;-75
2023/02/04 10:15:18;;;;;;;;;;;;;;;11.74;60.18;93881.53;2051376;70;20050;-76
2023/02/04 10:17:45;;;;;;;;;;;;;;;11.54;60.70;93875.09;2051434;70;20134;-77
2023/02/04 10:20:19;;;;;;;;;;;;;;;11.02;61.15;93881.75;2048146;70;20069;-76
2023/02/04 10:22:45;;;;;;;;;;;;;;;10.88;61.41;93878.56;2048096;70;20495;-77
2023/02/04 10:25:12;;;;;;;;;;;;;;;10.68;63.42;93876.97;2051964;70;20070;-75
2023/02/04 10:27:54;;;;;;;;;;;;;;;11.88;61.61;93877.00;2049946;70;20090;-76
2023/02/04 10:30:24;;;;;;;;;;;;;;;12.18;56.45;93878.47;2051738;70;20113;-79
2023/02/04 10:32:50;;;;;;;;;;;;;;;11.11;58.61;93866.94;2051540;70;20046;-78
2023/02/04 10:35:16;;;;;;;;;;;;;;;11.20;57.47;93883.16;2051486;70;20049;-79
2023/02/04 10:37:42;;;;;;;;;;;;;;;11.52;55.26;93884.16;2051406;70;20055;-79
2023/02/04 10:40:24;;;;;;;;;;;;;;;11.32;56.02;93886.19;2051499;70;20117;-76
2023/02/04 10:42:51;;;;;;;;;;;;;;;10.90;56.17;93881.53;2051613;70;20082;-79
2023/02/04 10:45:23;;;;;;;;;;;;;;;11.41;55.04;93879.09;2051415;70;20166;-76
2023/02/04 10:47:49;;;;;;;;;;;;;;;10.99;56.53;93880.09;2051439;70;20126;-76
2023/02/04 10:50:20;;;;;;;;;;;;;;;11.29;55.51;93875.31;2051425;70;20042;-76
2023/02/04 10:52:48;;;;;;;;;;;;;;;12.19;53.30;93877.91;2051425;70;20054;-76
2023/02/04 10:55:16;;;;;;;;;;;;;;;13.97;51.88;93874.09;2051470;70;20095;-77
2023/02/04 10:57:43;;;;;;;;;;;;;;;12.79;49.21;93876.53;2051322;70;20168;-77
2023/02/04 11:00:22;;;;;;;;;;;;;;;14.70;49.60;93880.97;2051393;70;20142;-77
2023/02/04 11:02:57;;;;;;;;;;;;;;;14.68;47.04;93880.88;2051850;70;20137;-77
2023/02/04 11:05:29;;;;;;;;;;;;;;;15.12;45.09;93872.97;2052575;70;20142;-77
2023/02/04 11:07:56;;;;;;;;;;;;;;;15.96;43.30;93871.03;2052560;70;20053;-77
2023/02/04 11:10:32;;;;;;;;;;;;;;;15.58;44.56;93880.81;2052676;70;20078;-78
2023/02/04 11:12:57;;;;;;;;;;;;;;;15.47;45.25;93870.16;2052438;70;20139;-80
2023/02/04 11:15:35;;;;;;;;;;;;;;;19.37;41.35;93879.84;2052607;70;20051;-79
2023/02/04 11:18:12;;;;;;;;;;;;;;;18.28;42.21;93877.44;2052679;70;20082;-77
2023/02/04 11:20:39;;;;;;;;;;;;;;;21.25;37.13;93877.28;2053203;70;20057;-78
2023/02/04 11:23:23;;;;;;;;;;;;;;;21.52;36.97;93879.06;2052637;70;20058;-79
2023/02/04 11:26:00;;;;;;;;;;;;;;;20.92;35.71;93875.25;2052601;70;20653;-78
2023/02/04 11:28:25;;;;;;;;;;;;;;;22.23;35.38;93869.56;2052345;70;20438;-80
2023/02/04 11:31:02;;;;;;;;;;;;;;;20.21;36.07;93878.69;2052586;70;20058;-77
2023/02/04 11:33:40;;;;;;;;;;;;;;;22.60;32.66;93877.31;2052609;70;20042;-79
2023/02/04 11:36:08;;;;;;;;;;;;;;;23.42;32.14;93877.91;2052361;70;20061;-78
2023/02/04 11:38:33;;;;;;;;;;;;;;;22.42;31.49;93876.69;2052460;70;20062;-78
2023/02/04 11:40:59;;;;;;;;;;;;;;;23.75;31.50;93878.91;2052357;70;20471;-78
2023/02/04 11:43:25;;;;;;;;;;;;;;;22.33;32.94;93876.38;2049078;70;20192;-81
2023/02/04 11:46:06;;;;;;;;;;;;;;;24.15;31.38;93882.25;2052420;70;20066;-81
2023/02/04 11:48:35;;;;;;;;;;;;;;;22.28;31.11;93886.25;2052585;70;20562;-82
2023/02/04 11:51:01;;;;;;;;;;;;;;;24.26;27.74;93878.25;2052501;70;20079;-82
2023/02/04 11:53:30;;;;;;;;;;;;;;;24.95;26.85;93878.69;2052435;70;20491;-81
2023/02/04 11:55:58;;;;;;;;;;;;;;;24.28;27.96;93886.97;2052331;70;20046;-81
2023/02/04 11:58:25;;;;;;;;;;;;;;;24.35;28.32;93882.81;2052433;70;20514;-82
2023/02/04 12:00:52;;;;;;;;;;;;;;;25.53;26.37;93881.56;2052603;70;20058;-80
2023/02/04 12:03:30;;;;;;;;;;;;;;;24.25;28.13;93882.56;2052226;70;20039;-77
2023/02/04 12:05:57;;;;;;;;;;;;;;;26.86;24.93;93885.13;2052340;70;20057;-75
2023/02/04 12:08:22;;;;;;;;;;;;;;;27.35;24.00;93898.31;2052513;70;20062;-78
2023/02/04 12:10:57;;;;;;;;;;;;;;;27.62;23.44;93887.88;2052300;70;20461;-77
2023/02/04 12:13:23;;;;;;;;;;;;;;;25.73;24.50;93887.81;2052600;70;20070;-76
2023/02/04 12:15:59;;;;;;;;;;;;;;;27.39;24.88;93882.44;2054595;70;20101;-79
2023/02/04 12:18:28;;;;;;;;;;;;;;;27.51;23.80;93894.94;2051830;70;20086;-77
2023/02/04 12:20:57;;;;;;;;;;;;;;;28.78;22.44;93897.44;2051719;70;20137;-78
2023/02/04 12:23:22;;;;;;;;;;;;;;;29.20;22.41;93899.34;2051791;70;20046;-80
2023/02/04 12:25:48;;;;;;;;;;;;;;;24.71;23.94;93893.19;2051510;70;20077;-80
2023/02/04 12:28:13;;;;;;;;;;;;;;;22.58;27.30;93880.84;2048413;70;20129;-80
2023/02/04 12:30:39;;;;;;;;;;;;;;;21.81;29.19;93878.06;2051742;70;20146;-78
2023/02/04 12:33:06;;;;;;;;;;;;;;;20.56;29.30;93875.91;2048247;70;20483;-77
2023/02/04 12:35:33;;;;;;;;;;;;;;;19.58;29.78;93870.13;2051785;70;20503;-80
2023/02/04 12:37:59;;;;;;;;;;;;;;;18.98;30.79;93873.06;2051596;70;20444;-79
2023/02/04 12:40:24;;;;;;;;;;;;;;;17.76;32.47;93872.56;2048373;70;20051;-78
2023/02/04 12:42:50;;;;;;;;;;;;;;;17.28;32.61;93877.84;2051585;70;20519;-79
2023/02/04 12:45:16;;;;;;;;;;;;;;;16.88;34.25;93869.91;2051670;70;20047;-78
2023/02/04 12:47:43;;;;;;;;;;;;;;;16.30;34.38;93870.84;2051696;70;20557;-77
2023/02/04 12:50:09;;;;;;;;;;;;;;;16.46;34.36;93866.84;2051566;70;20050;-80
2023/02/04 12:52:38;;;;;;;;;;;;;;;14.54;38.32;93857.28;2051681;70;20137;-78